»·PEaware :: N123SX KRAL-KSAN

N123SX :: KRAL-KSAN

FLIGHT INFORMATION

Flight Status: Arrived
Operator: Privately registered:
United States
More flights under this callsign
Pilot: Shawn G. (7208)
Aircraft: Unknown
(EA55)
More flights by this aircraft type
Origin: KRAL Riverside Mun
United States
Destination: KSAN San Diego Intl-Lindbergh
United States
More flights between these airports :: More routes between these airports
Route: +PDZ V186 HAILE V66 MZB
File this flight plan on PilotEdge
Remarks: Alphabet Challenge leg 18
Altitude:
(Current/Filed)
11,000ft
Speed:
(Current/Filed)
330kts
Departed: 11-May-16 04:05 PM
Arrived: 11-May-16 04:32 PM
Distance/Time
Traveled:
74nm/0:27
Distance/Time
To Go:
Arrived

Flight Plot

Page will automatically refresh every two minutes.


Map Options




Map Legend


Flown Route
Filed Route
Departure Airport
Arrival Airport
Navaid (VOR, NDB)
Fix

Horizontal Profiles

Position Reports

Time Latitude Longitude Heading Altitude Ground
Speed
11-May-16 15:37 33.951050 -117.446152 104 772ft 0kts
11-May-16 15:38 33.951050 -117.446152 104 772ft 0kts
11-May-16 15:39 33.951050 -117.446152 104 772ft 0kts
11-May-16 15:40 33.951050 -117.446152 104 772ft 0kts
11-May-16 15:41 33.951050 -117.446152 104 772ft 0kts
11-May-16 15:42 33.951050 -117.446152 104 772ft 0kts
11-May-16 15:43 33.951050 -117.446152 104 772ft 0kts
11-May-16 15:44 33.951050 -117.446152 104 772ft 0kts
11-May-16 15:45 33.951050 -117.446152 104 772ft 0kts
11-May-16 15:46 33.951050 -117.446152 104 772ft 0kts
11-May-16 15:47 33.951050 -117.446152 104 772ft 0kts
11-May-16 15:48 33.951050 -117.446152 104 772ft 0kts
11-May-16 15:49 33.951050 -117.446152 104 772ft 0kts
11-May-16 15:50 33.951050 -117.446152 104 772ft 0kts
11-May-16 15:51 33.951050 -117.446152 104 772ft 0kts
11-May-16 15:52 33.951050 -117.446152 104 772ft 0kts
11-May-16 15:53 33.951050 -117.446152 104 772ft 0kts
11-May-16 15:54 33.951050 -117.446152 104 772ft 0kts
11-May-16 15:55 33.951050 -117.446152 104 772ft 0kts
11-May-16 15:56 33.951050 -117.446152 104 772ft 0kts
11-May-16 15:57 33.951154 -117.445776 80 773ft 0kts
11-May-16 15:58 33.951430 -117.443121 102 786ft 14kts
11-May-16 15:59 33.950687 -117.439207 104 803ft 10kts
11-May-16 16:00 33.950024 -117.434911 27 815ft 1kts
11-May-16 16:01 33.950129 -117.434845 28 815ft 0kts
11-May-16 16:02 33.950154 -117.434829 29 815ft 0kts
11-May-16 16:03 33.950693 -117.435406 284 815ft 37kts
11-May-16 16:04 33.956785 -117.482211 259 3167ft 183kts
11-May-16 16:05 33.905643 -117.515882 152 3993ft 221kts
11-May-16 16:06 33.858020 -117.478363 146 6853ft 221kts
11-May-16 16:07 33.806420 -117.435843 145 10587ft 236kts
11-May-16 16:08 33.740965 -117.381369 145 11022ft 335kts
11-May-16 16:09 33.662591 -117.316065 145 11017ft 351kts
11-May-16 16:10 33.583948 -117.250634 145 11017ft 351kts
11-May-16 16:11 33.503988 -117.184246 145 11017ft 354kts
11-May-16 16:12 33.419012 -117.149627 169 11034ft 353kts
11-May-16 16:13 33.323161 -117.129060 170 10997ft 353kts
11-May-16 16:14 33.244599 -117.102265 151 8261ft 271kts
11-May-16 16:15 33.180547 -117.060357 151 7001ft 264kts
11-May-16 16:16 33.117180 -117.018757 151 7000ft 264kts
11-May-16 16:17 33.053470 -116.976815 151 6999ft 264kts
11-May-16 16:18 32.989735 -116.934840 151 6999ft 264kts
11-May-16 16:19 32.926598 -116.893251 151 6992ft 268kts
11-May-16 16:20 32.859891 -116.852188 172 6985ft 275kts
11-May-16 16:21 32.807899 -116.862260 191 6438ft 200kts
11-May-16 16:22 32.751431 -116.875651 191 4050ft 208kts
11-May-16 16:23 32.695643 -116.888953 203 3985ft 206kts
11-May-16 16:24 32.667283 -116.944661 254 3968ft 181kts
11-May-16 16:25 32.670018 -116.998969 297 3013ft 175kts
11-May-16 16:26 32.693869 -117.048153 297 2988ft 156kts
11-May-16 16:27 32.709705 -117.087217 282 2431ft 101kts
11-May-16 16:28 32.715969 -117.116907 282 1187ft 93kts
11-May-16 16:29 32.722925 -117.146086 285 618ft 92kts
11-May-16 16:30 32.729919 -117.174656 286 144ft 90kts
11-May-16 16:31 32.733983 -117.188041 18 18ft 0kts
11-May-16 16:32 32.733586 -117.185002 108 18ft 16kts
11-May-16 16:33 32.732490 -117.179573 49 18ft 20kts
11-May-16 16:34 32.733411 -117.178354 142 21ft 0kts
11-May-16 16:35 32.733411 -117.178354 142 21ft 0kts
11-May-16 16:36 32.733411 -117.178354 142 21ft 0kts
11-May-16 16:37 32.733411 -117.178354 142 21ft 0kts
11-May-16 16:38 32.733411 -117.178354 142 21ft 0kts
11-May-16 16:39 32.733411 -117.178354 142 21ft 0kts

Navigation Log

Ident Type
Flight plan parsing failed, navigation log unavailable